createdAt,value
2022-08-12T00:02:03.060Z,2.35
2022-08-12T00:06:25.290Z,2.60
2022-08-12T00:10:45.501Z,2.42
2022-08-12T00:15:05.915Z,2.50
2022-08-12T00:19:25.773Z,2.05
2022-08-12T00:28:06.313Z,2.50
2022-08-12T00:32:36.186Z,2.55
2022-08-12T00:37:02.709Z,2.53
2022-08-12T00:41:34.714Z,2.25
2022-08-12T00:45:56.154Z,2.30
2022-08-12T00:49:58.582Z,2.10
2022-08-12T00:54:00.093Z,2.30
2022-08-12T00:58:06.022Z,2.72
2022-08-12T01:02:11.592Z,2.60
2022-08-12T01:06:36.669Z,2.22
2022-08-12T01:10:58.914Z,2.17
2022-08-12T01:15:01.670Z,2.28
2022-08-12T01:19:03.663Z,2.55
2022-08-12T01:23:18.029Z,2.28
2022-08-12T01:27:22.328Z,2.60
2022-08-12T01:31:23.833Z,2.25
2022-08-12T01:35:27.188Z,2.15
2022-08-12T01:40:33.192Z,2.75
2022-08-12T01:44:04.541Z,2.47
2022-08-12T01:48:25.488Z,2.50
2022-08-12T01:52:48.657Z,2.20
2022-08-12T01:56:55.940Z,2.70
2022-08-12T02:01:04.516Z,2.38
2022-08-12T02:06:00.719Z,2.53
2022-08-12T02:10:50.379Z,2.47
2022-08-12T02:15:07.076Z,2.45
2022-08-12T02:19:30.555Z,2.58
2022-08-12T02:23:34.657Z,2.25
2022-08-12T02:27:54.072Z,2.53
2022-08-12T02:31:57.334Z,2.58
2022-08-12T02:36:02.358Z,3.00
2022-08-12T02:40:04.753Z,2.58
2022-08-12T02:44:15.113Z,2.80
2022-08-12T02:48:33.976Z,2.63
2022-08-12T02:52:36.978Z,2.45
2022-08-12T02:56:41.551Z,2.65
2022-08-12T03:00:44.255Z,2.53
2022-08-12T03:04:56.597Z,2.70
2022-08-12T03:08:59.811Z,3.35
2022-08-12T03:13:04.128Z,2.88
2022-08-12T03:17:27.912Z,2.70
2022-08-12T03:21:57.892Z,2.97
2022-08-12T03:25:55.537Z,3.28
2022-08-12T03:29:57.871Z,2.80
2022-08-12T03:34:04.445Z,2.75
2022-08-12T03:38:08.864Z,3.13
2022-08-12T03:42:40.656Z,2.97
2022-08-12T03:47:03.936Z,3.03
2022-08-12T03:51:24.168Z,3.10
2022-08-12T03:55:43.925Z,4.05
2022-08-12T04:00:03.855Z,3.58
2022-08-12T04:04:05.719Z,3.30
2022-08-12T04:08:11.348Z,3.28
2022-08-12T04:12:33.264Z,3.40
2022-08-12T04:16:35.599Z,3.05
2022-08-12T04:20:37.285Z,3.67
2022-08-12T04:24:40.931Z,3.58
2022-08-12T04:28:43.196Z,3.78
2022-08-12T04:32:46.120Z,4.05
2022-08-12T04:36:48.548Z,3.70
2022-08-12T04:40:50.108Z,3.92
2022-08-12T04:44:51.843Z,3.92
2022-08-12T04:48:54.689Z,3.92
2022-08-12T04:52:56.545Z,3.60
2022-08-12T04:57:04.069Z,3.15
2022-08-12T05:01:12.628Z,3.67
2022-08-12T05:05:24.664Z,4.57
2022-08-12T05:09:26.105Z,3.83
2022-08-12T05:13:47.532Z,3.70
2022-08-12T05:17:49.191Z,3.47
2022-08-12T05:21:50.935Z,3.47
2022-08-12T05:25:56.455Z,2.95
2022-08-12T05:30:05.568Z,3.03
2022-08-12T05:34:14.665Z,3.30
2022-08-12T05:38:37.323Z,3.03
2022-08-12T05:42:39.119Z,3.28
2022-08-12T05:46:41.245Z,2.85
2022-08-12T05:50:45.280Z,2.67
2022-08-12T05:54:57.205Z,2.33
2022-08-12T05:59:01.333Z,2.70
2022-08-12T06:03:04.756Z,2.30
2022-08-12T06:07:37.265Z,2.30
2022-08-12T06:11:30.229Z,2.30
2022-08-12T06:15:35.711Z,2.40
2022-08-12T06:20:28.687Z,2.28
2022-08-12T06:23:58.628Z,2.47
2022-08-12T06:28:07.590Z,1.80
2022-08-12T06:32:09.810Z,2.15
2022-08-12T06:36:14.083Z,1.77
2022-08-12T06:40:41.233Z,1.95
2022-08-12T06:44:42.741Z,2.63
2022-08-12T06:48:44.283Z,1.80
2022-08-12T06:52:46.436Z,2.22
2022-08-12T06:57:03.757Z,1.65
2022-08-12T07:01:07.428Z,1.80
2022-08-12T07:05:09.469Z,1.55
2022-08-12T07:09:14.537Z,1.70
2022-08-12T07:14:11.199Z,2.47
2022-08-12T07:18:11.908Z,1.75
2022-08-12T07:22:13.520Z,1.80
2022-08-12T07:26:18.665Z,1.90
2022-08-12T07:30:20.189Z,1.98
2022-08-12T07:34:23.323Z,1.52
2022-08-12T07:38:30.472Z,1.48
2022-08-12T07:42:32.087Z,1.30
2022-08-12T07:46:37.538Z,1.17
2022-08-12T07:50:39.242Z,1.70
2022-08-12T07:54:40.739Z,1.10
2022-08-12T07:58:46.906Z,1.40
2022-08-12T08:02:49.319Z,1.08
2022-08-12T08:06:50.900Z,0.98
2022-08-12T08:11:17.327Z,1.10
2022-08-12T08:15:20.147Z,0.95
2022-08-12T08:19:26.800Z,1.20
2022-08-12T08:23:56.461Z,1.10
2022-08-12T08:28:02.040Z,1.20
2022-08-12T08:32:07.662Z,1.17
2022-08-12T08:36:16.164Z,0.90
2022-08-12T08:40:51.528Z,1.10
2022-08-12T08:44:57.964Z,1.00
2022-08-12T08:49:01.330Z,0.90
2022-08-12T08:53:02.818Z,1.00
2022-08-12T08:57:07.927Z,1.00
2022-08-12T09:01:09.348Z,1.08
2022-08-12T09:05:15.693Z,1.20
2022-08-12T09:09:18.533Z,1.10
2022-08-12T09:14:09.928Z,1.10
2022-08-12T09:17:57.689Z,1.10
2022-08-12T09:22:00.695Z,1.17
2022-08-12T09:30:41.191Z,0.90
2022-08-12T09:34:45.882Z,1.27
2022-08-12T09:38:58.769Z,1.23
2022-08-12T09:43:21.524Z,1.17
2022-08-12T09:47:29.608Z,1.10
2022-08-12T09:51:37.284Z,1.23
2022-08-12T09:56:06.633Z,1.00
2022-08-12T10:00:19.798Z,1.00
2022-08-12T10:04:30.801Z,1.00
2022-08-12T10:08:33.677Z,1.02
2022-08-12T10:13:07.122Z,1.17
2022-08-12T10:17:10.237Z,1.20
2022-08-12T10:21:16.415Z,1.05
2022-08-12T10:26:35.247Z,1.13
2022-08-12T10:30:03.289Z,1.40
2022-08-12T10:34:26.613Z,1.00
2022-08-12T10:38:37.677Z,1.05
2022-08-12T10:43:01.010Z,1.33
2022-08-12T10:47:26.430Z,1.05
2022-08-12T10:52:03.214Z,1.20
2022-08-12T10:55:55.473Z,1.50
2022-08-12T11:00:30.911Z,1.00
2022-08-12T11:04:41.405Z,1.30
2022-08-12T11:08:47.045Z,1.10
2022-08-12T11:12:58.643Z,1.20
2022-08-12T11:17:34.790Z,0.80
2022-08-12T11:21:56.769Z,1.10
2022-08-12T11:25:57.627Z,1.02
2022-08-12T11:30:05.904Z,0.98
2022-08-12T11:34:51.042Z,1.00
2022-08-12T11:38:30.424Z,1.10
2022-08-12T11:42:32.360Z,0.80
2022-08-12T11:46:38.441Z,0.93
2022-08-12T11:50:43.496Z,0.93
2022-08-12T11:54:50.942Z,0.90
2022-08-12T12:01:58.187Z,0.90
2022-08-12T12:03:17.332Z,0.93
2022-08-12T12:07:18.967Z,0.75
2022-08-12T12:11:21.706Z,1.00
2022-08-12T12:15:24.879Z,1.38
2022-08-12T12:19:28.403Z,1.42
2022-08-12T12:23:47.386Z,1.02
2022-08-12T12:28:04.394Z,1.33
2022-08-12T12:32:11.831Z,1.20
2022-08-12T12:36:20.697Z,1.05
2022-08-12T12:40:30.065Z,1.23
2022-08-12T12:44:42.177Z,1.05
2022-08-12T12:48:52.293Z,1.20
2022-08-12T12:52:54.283Z,1.67
2022-08-12T12:56:55.785Z,1.30
2022-08-12T13:01:04.474Z,1.20
2022-08-12T13:05:11.842Z,1.00
2022-08-12T13:09:15.477Z,1.20
2022-08-12T13:14:10.440Z,1.10
2022-08-12T13:18:02.035Z,1.25
2022-08-12T13:22:20.345Z,1.02
2022-08-12T13:26:23.021Z,1.13
2022-08-12T13:30:26.613Z,1.20
2022-08-12T13:34:34.373Z,1.00
2022-08-12T13:38:39.651Z,1.08
2022-08-12T13:42:41.344Z,1.10
2022-08-12T13:46:58.138Z,1.23
2022-08-12T13:51:00.719Z,1.00
2022-08-12T13:55:06.520Z,7.10
2022-08-12T13:59:08.802Z,1.10
2022-08-12T14:03:12.414Z,1.30
2022-08-12T14:07:13.999Z,1.30
2022-08-12T14:11:15.561Z,1.42
2022-08-12T14:15:17.075Z,1.33
2022-08-12T14:19:22.720Z,1.30
2022-08-12T14:24:05.415Z,1.37
2022-08-12T14:28:03.457Z,1.40
2022-08-12T14:32:07.798Z,1.42
2022-08-12T14:36:23.314Z,1.00
2022-08-12T14:40:30.184Z,1.23
2022-08-12T14:44:58.086Z,1.10
2022-08-12T14:48:55.066Z,1.05
2022-08-12T14:57:24.171Z,1.15
2022-08-12T15:01:44.600Z,1.50
2022-08-12T15:06:05.435Z,1.77
2022-08-12T15:10:09.265Z,1.23
2022-08-12T15:14:11.703Z,1.08
2022-08-12T15:18:22.714Z,1.20
2022-08-12T15:22:37.299Z,1.02
2022-08-12T15:26:42.343Z,1.27
2022-08-12T15:30:43.977Z,1.00
2022-08-12T15:34:46.660Z,1.20
2022-08-12T15:38:51.340Z,1.30
2022-08-12T15:42:54.438Z,1.00
2022-08-12T15:46:55.889Z,1.20
2022-08-12T15:50:57.618Z,1.20
2022-08-12T15:55:06.398Z,1.17
2022-08-12T15:59:15.393Z,1.35
2022-08-12T16:03:28.603Z,1.27
2022-08-12T16:07:49.405Z,1.08
2022-08-12T16:11:52.088Z,1.30
2022-08-12T16:16:02.988Z,1.15
2022-08-12T16:20:06.219Z,1.52
2022-08-12T16:24:08.261Z,1.50
2022-08-12T16:28:12.493Z,1.10
2022-08-12T16:32:19.369Z,2.95
2022-08-12T16:36:20.868Z,1.67
2022-08-12T16:40:22.362Z,2.53
2022-08-12T16:44:26.641Z,1.77
2022-08-12T16:48:38.689Z,2.03
2022-08-12T16:52:41.326Z,1.70
2022-08-12T16:56:51.126Z,1.70
2022-08-12T17:01:03.153Z,1.40
2022-08-12T17:05:14.921Z,1.63
2022-08-12T17:09:19.018Z,1.23
2022-08-12T17:13:21.047Z,1.42
2022-08-12T17:17:38.998Z,1.48
2022-08-12T17:26:10.921Z,1.45
2022-08-12T17:30:13.978Z,1.35
2022-08-12T17:34:38.258Z,1.58
2022-08-12T17:38:40.565Z,1.92
2022-08-12T17:42:43.454Z,2.38
2022-08-12T17:46:45.468Z,1.70
2022-08-12T17:50:56.310Z,1.60
2022-08-12T17:54:59.381Z,2.20
2022-08-12T17:59:02.363Z,1.58
2022-08-12T18:03:04.516Z,1.75
2022-08-12T18:07:08.514Z,6.05
2022-08-12T18:12:03.353Z,1.73
2022-08-12T18:16:04.101Z,1.80
2022-08-12T18:20:15.513Z,1.80
2022-08-12T18:24:22.319Z,2.47
2022-08-12T18:28:29.019Z,1.88
2022-08-12T18:32:58.752Z,2.28
2022-08-12T18:36:59.552Z,2.30
2022-08-12T18:41:33.488Z,2.90
2022-08-12T18:45:47.344Z,2.80
2022-08-12T18:49:58.869Z,3.22
2022-08-12T18:54:06.008Z,2.80
2022-08-12T19:02:22.147Z,2.17
2022-08-12T19:06:27.180Z,2.38
2022-08-12T19:10:33.680Z,2.15
2022-08-12T19:14:42.132Z,2.78
2022-08-12T19:18:44.675Z,2.35
2022-08-12T19:22:59.653Z,2.75
2022-08-12T19:27:10.296Z,3.03
2022-08-12T19:31:45.291Z,2.75
2022-08-12T19:36:07.794Z,3.63
2022-08-12T19:40:32.992Z,3.47
2022-08-12T19:44:37.754Z,4.47
2022-08-12T19:48:43.314Z,3.20
2022-08-12T19:52:44.845Z,3.80
2022-08-12T19:56:51.429Z,2.85
2022-08-12T20:00:54.877Z,4.50
2022-08-12T20:06:03.410Z,3.42
2022-08-12T20:09:18.313Z,2.95
2022-08-12T20:13:26.910Z,2.90
2022-08-12T20:17:36.299Z,3.50
2022-08-12T20:21:51.869Z,3.30
2022-08-12T20:26:01.866Z,3.85
2022-08-12T20:30:07.290Z,2.83
2022-08-12T20:34:08.895Z,3.28
2022-08-12T20:38:26.175Z,3.55
2022-08-12T20:42:31.940Z,3.13
2022-08-12T20:46:33.840Z,4.80
2022-08-12T20:50:36.524Z,3.33
2022-08-12T20:54:42.918Z,3.58
2022-08-12T20:58:50.897Z,3.28
2022-08-12T21:02:52.394Z,3.33
2022-08-12T21:06:57.955Z,3.70
2022-08-12T21:11:06.327Z,2.60
2022-08-12T21:15:22.878Z,3.78
2022-08-12T21:19:53.047Z,2.78
2022-08-12T21:23:49.596Z,3.95
2022-08-12T21:27:58.791Z,3.20
2022-08-12T21:32:40.165Z,4.15
2022-08-12T21:36:34.107Z,3.15
2022-08-12T21:40:36.944Z,3.42
2022-08-12T21:45:48.320Z,3.30
2022-08-12T21:49:04.781Z,3.22
2022-08-12T21:53:10.300Z,3.33
2022-08-12T21:57:15.766Z,3.45
2022-08-12T22:01:22.961Z,3.92
2022-08-12T22:05:42.863Z,2.97
2022-08-12T22:09:46.175Z,3.75
2022-08-12T22:14:02.030Z,3.15
2022-08-12T22:18:09.562Z,2.90
2022-08-12T22:22:12.317Z,3.10
2022-08-12T22:26:28.980Z,3.80
2022-08-12T22:30:55.342Z,3.20
2022-08-12T22:35:22.223Z,3.65
2022-08-12T22:39:30.724Z,3.15
2022-08-12T22:44:00.385Z,3.80
2022-08-12T22:52:08.575Z,3.40
2022-08-12T22:56:10.219Z,3.45
2022-08-12T23:00:27.443Z,3.17
2022-08-12T23:04:34.579Z,3.65
2022-08-12T23:08:37.509Z,3.50
2022-08-12T23:13:00.309Z,3.30
2022-08-12T23:17:07.520Z,3.20
2022-08-12T23:21:24.504Z,3.55
2022-08-12T23:25:32.710Z,3.10
2022-08-12T23:30:17.402Z,3.45
2022-08-12T23:34:13.970Z,2.85
2022-08-12T23:38:30.225Z,3.20
2022-08-12T23:42:32.794Z,2.83
2022-08-12T23:46:34.272Z,3.10
2022-08-12T23:50:35.751Z,3.03
2022-08-12T23:54:44.375Z,3.33
2022-08-12T23:58:57.553Z,3.10
